Aviation Digital Data Service (ADDS)

Output produced by METARs form (2107 UTC 24 March 2019)
found at http://www.aviationweather.gov/metar/data/
 
MGGT 241700Z 2418/2518 02012KT 9999 FEW018 TX27/2420Z TN12/2512Z 
     TEMPO 2418/2500 36016KT SCT020 
     BECMG 2500/2502 36016KT FEW016 
     BECMG 2516/2518 36018KT SCT018
       
MGSJ 241700Z 2418/2518 18008KT 8000 NSC TX34/2420Z TN20/2512Z 
     TEMPO 2418/2500 22012KT FEW020 
     BECMG 2500/2502 00000KT 
     TEMPO 2504/2512 CAVOK 
     BECMG 2516/2518 18008KT